sensor_id;sensor_type;location;lat;lon;timestamp;pressure;altitude;pressure_sealevel;temperature;humidity
14790;BME280;7486;51.010;10.366;2023-02-14T00:01:52;100280.06;;;0.26;76.67
14790;BME280;7486;51.010;10.366;2023-02-14T00:04:19;100146.84;;;-0.56;76.55
14790;BME280;7486;51.010;10.366;2023-02-14T00:06:46;100263.81;;;0.21;76.63
14790;BME280;7486;51.010;10.366;2023-02-14T00:09:16;100125.47;;;-0.76;76.07
14790;BME280;7486;51.010;10.366;2023-02-14T00:11:43;100141.47;;;-0.68;76.16
14790;BME280;7486;51.010;10.366;2023-02-14T00:14:11;100275.91;;;0.08;76.64
14790;BME280;7486;51.010;10.366;2023-02-14T00:16:38;100201.41;;;-0.54;76.67
14790;BME280;7486;51.010;10.366;2023-02-14T00:19:05;100275.53;;;-0.00;75.81
14790;BME280;7486;51.010;10.366;2023-02-14T00:21:34;100275.78;;;-0.05;76.52
14790;BME280;7486;51.010;10.366;2023-02-14T00:24:03;100236.22;;;-0.41;75.62
14790;BME280;7486;51.010;10.366;2023-02-14T00:26:30;100283.19;;;-0.13;76.25
14790;BME280;7486;51.010;10.366;2023-02-14T00:28:57;100277.97;;;-0.13;76.04
14790;BME280;7486;51.010;10.366;2023-02-14T00:31:24;100186.91;;;-0.74;75.78
14790;BME280;7486;51.010;10.366;2023-02-14T00:33:51;100281.69;;;-0.17;75.43
14790;BME280;7486;51.010;10.366;2023-02-14T00:36:19;100173.09;;;-0.90;75.35
14790;BME280;7486;51.010;10.366;2023-02-14T00:38:48;100236.84;;;-0.52;75.74
14790;BME280;7486;51.010;10.366;2023-02-14T00:41:15;100146.34;;;-1.08;75.47
14790;BME280;7486;51.010;10.366;2023-02-14T00:43:42;100279.69;;;-0.27;75.72
14790;BME280;7486;51.010;10.366;2023-02-14T00:46:18;100210.41;;;-0.75;75.93
14790;BME280;7486;51.010;10.366;2023-02-14T00:48:46;100286.94;;;-0.32;75.94
14790;BME280;7486;51.010;10.366;2023-02-14T00:51:13;100286.09;;;-0.33;75.64
14790;BME280;7486;51.010;10.366;2023-02-14T00:53:41;100239.38;;;-0.66;76.24
14790;BME280;7486;51.010;10.366;2023-02-14T00:56:08;100274.03;;;-0.50;75.97
14790;BME280;7486;51.010;10.366;2023-02-14T00:58:35;100215.13;;;-0.82;76.02
14790;BME280;7486;51.010;10.366;2023-02-14T01:01:02;100287.28;;;-0.38;75.53
14790;BME280;7486;51.010;10.366;2023-02-14T01:03:29;100243.16;;;-0.71;76.14
14790;BME280;7486;51.010;10.366;2023-02-14T01:05:56;100152.22;;;-1.20;75.41
14790;BME280;7486;51.010;10.366;2023-02-14T01:08:24;100167.66;;;-1.17;75.96
14790;BME280;7486;51.010;10.366;2023-02-14T01:14:18;100252.41;;;-0.66;75.77
14790;BME280;7486;51.010;10.366;2023-02-14T01:16:48;100305.69;;;-0.42;76.13
14790;BME280;7486;51.010;10.366;2023-02-14T01:19:37;100295.28;;;-0.42;76.29
14790;BME280;7486;51.010;10.366;2023-02-14T01:22:05;100294.50;;;-0.44;76.20
14790;BME280;7486;51.010;10.366;2023-02-14T01:24:32;100050.44;;;-1.90;75.07
14790;BME280;7486;51.010;10.366;2023-02-14T01:26:59;100238.72;;;-0.85;75.74
14790;BME280;7486;51.010;10.366;2023-02-14T01:29:26;100286.78;;;-0.61;75.93
14790;BME280;7486;51.010;10.366;2023-02-14T01:31:53;100210.69;;;-1.11;75.68
14790;BME280;7486;51.010;10.366;2023-02-14T01:34:23;100161.72;;;-1.34;75.50
14790;BME280;7486;51.010;10.366;2023-02-14T01:36:50;100209.34;;;-1.03;75.71
14790;BME280;7486;51.010;10.366;2023-02-14T01:39:17;100072.72;;;-1.86;75.78
14790;BME280;7486;51.010;10.366;2023-02-14T01:41:45;100221.25;;;-0.99;75.67
14790;BME280;7486;51.010;10.366;2023-02-14T01:46:44;100137.94;;;-1.60;75.25
14790;BME280;7486;51.010;10.366;2023-02-14T01:49:17;100231.91;;;-1.19;75.27
14790;BME280;7486;51.010;10.366;2023-02-14T01:51:49;100204.97;;;-1.33;75.70
14790;BME280;7486;51.010;10.366;2023-02-14T01:54:20;100010.47;;;-2.52;76.25
14790;BME280;7486;51.010;10.366;2023-02-14T01:56:53;99847.47;;;-3.58;75.94
14790;BME280;7486;51.010;10.366;2023-02-14T01:59:24;100212.44;;;-1.27;76.41
14790;BME280;7486;51.010;10.366;2023-02-14T02:01:53;100228.34;;;-1.33;75.89
14790;BME280;7486;51.010;10.366;2023-02-14T02:04:32;100276.38;;;-1.08;75.60
14790;BME280;7486;51.010;10.366;2023-02-14T02:07:04;100280.06;;;-1.12;76.01
14790;BME280;7486;51.010;10.366;2023-02-14T02:09:34;100116.06;;;-2.20;75.98
14790;BME280;7486;51.010;10.366;2023-02-14T02:12:03;100284.81;;;-1.20;76.17
14790;BME280;7486;51.010;10.366;2023-02-14T02:14:30;100238.81;;;-1.51;75.90
14790;BME280;7486;51.010;10.366;2023-02-14T02:33:01;100271.06;;;-1.37;77.73
14790;BME280;7486;51.010;10.366;2023-02-14T02:49:46;100261.63;;;-1.40;79.03
14790;BME280;7486;51.010;10.366;2023-02-14T02:55:02;100197.72;;;-1.92;79.17
14790;BME280;7486;51.010;10.366;2023-02-14T02:57:36;100265.41;;;-1.46;79.40
14790;BME280;7486;51.010;10.366;2023-02-14T03:00:08;100267.78;;;-1.41;80.03
14790;BME280;7486;51.010;10.366;2023-02-14T03:02:46;100238.56;;;-1.62;79.58
14790;BME280;7486;51.010;10.366;2023-02-14T03:05:15;100137.97;;;-2.25;80.04
14790;BME280;7486;51.010;10.366;2023-02-14T03:07:42;100227.47;;;-1.65;79.97
14790;BME280;7486;51.010;10.366;2023-02-14T03:10:23;100229.91;;;-1.62;79.89
14790;BME280;7486;51.010;10.366;2023-02-14T03:13:12;100261.69;;;-1.24;80.12
14790;BME280;7486;51.010;10.366;2023-02-14T03:25:23;100257.47;;;-1.60;78.95
14790;BME280;7486;51.010;10.366;2023-02-14T03:28:06;100270.47;;;-1.60;80.25
14790;BME280;7486;51.010;10.366;2023-02-14T03:30:57;100271.09;;;-1.55;80.51
14790;BME280;7486;51.010;10.366;2023-02-14T03:33:49;100241.91;;;-1.60;80.38
14790;BME280;7486;51.010;10.366;2023-02-14T03:36:38;100258.53;;;-1.47;80.81
14790;BME280;7486;51.010;10.366;2023-02-14T03:41:50;100243.59;;;-1.43;80.72
14790;BME280;7486;51.010;10.366;2023-02-14T03:44:22;100246.22;;;-1.43;80.66
14790;BME280;7486;51.010;10.366;2023-02-14T03:46:55;100254.66;;;-1.55;80.79
14790;BME280;7486;51.010;10.366;2023-02-14T03:49:28;100243.78;;;-1.46;81.21
14790;BME280;7486;51.010;10.366;2023-02-14T03:51:58;100179.72;;;-1.96;80.58
14790;BME280;7486;51.010;10.366;2023-02-14T03:54:28;100248.78;;;-1.59;81.18
14790;BME280;7486;51.010;10.366;2023-02-14T03:57:07;100209.84;;;-1.76;81.28
14790;BME280;7486;51.010;10.366;2023-02-14T03:59:37;100080.16;;;-2.45;80.58
14790;BME280;7486;51.010;10.366;2023-02-14T04:02:15;100155.69;;;-2.16;81.13
14790;BME280;7486;51.010;10.366;2023-02-14T04:04:47;100254.31;;;-1.65;80.92
14790;BME280;7486;51.010;10.366;2023-02-14T04:07:17;100139.03;;;-2.47;80.75
14790;BME280;7486;51.010;10.366;2023-02-14T04:09:45;99990.84;;;-3.42;80.99
14790;BME280;7486;51.010;10.366;2023-02-14T04:12:12;100247.78;;;-2.06;81.71
14790;BME280;7486;51.010;10.366;2023-02-14T04:14:39;100183.78;;;-2.41;82.41
14790;BME280;7486;51.010;10.366;2023-02-14T04:17:07;99964.94;;;-3.95;82.87
14790;BME280;7486;51.010;10.366;2023-02-14T04:19:33;100196.00;;;-2.43;83.17
14790;BME280;7486;51.010;10.366;2023-02-14T04:22:00;100120.13;;;-2.66;83.41
14790;BME280;7486;51.010;10.366;2023-02-14T04:24:27;100196.81;;;-2.09;82.77
14790;BME280;7486;51.010;10.366;2023-02-14T04:26:54;100195.06;;;-2.25;82.66
14790;BME280;7486;51.010;10.366;2023-02-14T04:29:20;100235.22;;;-1.98;82.24
14790;BME280;7486;51.010;10.366;2023-02-14T04:31:47;100144.09;;;-2.43;82.65
14790;BME280;7486;51.010;10.366;2023-02-14T04:34:14;100027.47;;;-3.14;82.28
14790;BME280;7486;51.010;10.366;2023-02-14T04:36:41;100264.69;;;-1.65;82.60
14790;BME280;7486;51.010;10.366;2023-02-14T04:39:08;100252.63;;;-1.66;82.22
14790;BME280;7486;51.010;10.366;2023-02-14T04:41:35;100247.22;;;-1.78;82.17
14790;BME280;7486;51.010;10.366;2023-02-14T04:44:01;100132.41;;;-2.52;82.69
14790;BME280;7486;51.010;10.366;2023-02-14T04:46:28;100140.50;;;-2.58;81.86
14790;BME280;7486;51.010;10.366;2023-02-14T04:48:55;100198.81;;;-2.31;82.80
14790;BME280;7486;51.010;10.366;2023-02-14T04:51:21;100241.03;;;-1.76;82.42
14790;BME280;7486;51.010;10.366;2023-02-14T04:53:48;100244.84;;;-1.83;82.12
14790;BME280;7486;51.010;10.366;2023-02-14T04:56:15;100237.59;;;-1.94;82.63
14790;BME280;7486;51.010;10.366;2023-02-14T04:58:42;100238.28;;;-1.90;83.16
14790;BME280;7486;51.010;10.366;2023-02-14T05:01:08;99955.06;;;-3.70;82.14
14790;BME280;7486;51.010;10.366;2023-02-14T05:03:35;100181.81;;;-2.36;83.55
14790;BME280;7486;51.010;10.366;2023-02-14T05:06:02;100179.88;;;-2.16;83.78
14790;BME280;7486;51.010;10.366;2023-02-14T05:08:29;100178.41;;;-2.04;83.79
14790;BME280;7486;51.010;10.366;2023-02-14T05:10:56;99852.84;;;-3.97;82.88
14790;BME280;7486;51.010;10.366;2023-02-14T05:13:23;100225.28;;;-1.57;83.64
14790;BME280;7486;51.010;10.366;2023-02-14T05:15:49;99941.63;;;-3.25;82.65
14790;BME280;7486;51.010;10.366;2023-02-14T05:18:16;100151.09;;;-2.28;82.23
14790;BME280;7486;51.010;10.366;2023-02-14T05:20:43;100240.97;;;-1.59;82.58
14790;BME280;7486;51.010;10.366;2023-02-14T05:23:10;99884.25;;;-3.69;82.28
14790;BME280;7486;51.010;10.366;2023-02-14T05:25:37;100174.41;;;-1.94;82.87
14790;BME280;7486;51.010;10.366;2023-02-14T05:28:03;100136.34;;;-2.11;82.45
14790;BME280;7486;51.010;10.366;2023-02-14T05:30:31;100177.03;;;-1.94;82.17
14790;BME280;7486;51.010;10.366;2023-02-14T05:32:59;100224.16;;;-1.52;81.95
14790;BME280;7486;51.010;10.366;2023-02-14T05:35:26;100127.03;;;-2.15;81.90
14790;BME280;7486;51.010;10.366;2023-02-14T05:37:53;100194.41;;;-1.79;82.11
14790;BME280;7486;51.010;10.366;2023-02-14T05:40:21;100179.41;;;-1.74;81.74
14790;BME280;7486;51.010;10.366;2023-02-14T05:42:47;100227.72;;;-1.87;82.41
14790;BME280;7486;51.010;10.366;2023-02-14T05:45:14;100220.03;;;-1.88;82.23
14790;BME280;7486;51.010;10.366;2023-02-14T05:47:41;100167.75;;;-2.32;82.26
14790;BME280;7486;51.010;10.366;2023-02-14T05:50:08;100190.81;;;-2.09;82.25
14790;BME280;7486;51.010;10.366;2023-02-14T05:52:36;100014.41;;;-3.47;82.25
14790;BME280;7486;51.010;10.366;2023-02-14T05:55:03;100226.06;;;-2.22;82.99
14790;BME280;7486;51.010;10.366;2023-02-14T05:57:30;100229.75;;;-2.26;83.30
14790;BME280;7486;51.010;10.366;2023-02-14T05:59:57;100186.69;;;-2.65;83.10
14790;BME280;7486;51.010;10.366;2023-02-14T06:02:24;100103.13;;;-3.24;82.92
14790;BME280;7486;51.010;10.366;2023-02-14T06:04:51;100116.72;;;-3.19;83.15
14790;BME280;7486;51.010;10.366;2023-02-14T06:07:18;100240.09;;;-2.61;83.00
14790;BME280;7486;51.010;10.366;2023-02-14T06:09:44;100159.00;;;-3.00;83.93
14790;BME280;7486;51.010;10.366;2023-02-14T06:12:11;100173.13;;;-2.88;83.34
14790;BME280;7486;51.010;10.366;2023-02-14T06:14:38;99900.25;;;-4.50;84.03
14790;BME280;7486;51.010;10.366;2023-02-14T06:17:04;100071.59;;;-3.70;83.67
14790;BME280;7486;51.010;10.366;2023-02-14T06:19:31;100173.25;;;-3.09;83.76
14790;BME280;7486;51.010;10.366;2023-02-14T06:21:58;100115.34;;;-3.45;84.14
14790;BME280;7486;51.010;10.366;2023-02-14T06:24:25;100141.66;;;-3.17;84.42
14790;BME280;7486;51.010;10.366;2023-02-14T06:26:51;100161.09;;;-3.08;83.84
14790;BME280;7486;51.010;10.366;2023-02-14T06:29:18;100109.72;;;-4.11;85.68
14790;BME280;7486;51.010;10.366;2023-02-14T06:31:45;100231.97;;;-3.26;87.84
14790;BME280;7486;51.010;10.366;2023-02-14T06:34:12;100119.50;;;-3.60;87.22
14790;BME280;7486;51.010;10.366;2023-02-14T06:36:41;100235.97;;;-2.65;86.90
14790;BME280;7486;51.010;10.366;2023-02-14T06:39:08;100211.63;;;-2.62;86.28
14790;BME280;7486;51.010;10.366;2023-02-14T06:41:35;100240.91;;;-2.60;85.77
14790;BME280;7486;51.010;10.366;2023-02-14T06:44:02;99873.72;;;-4.92;85.06
14790;BME280;7486;51.010;10.366;2023-02-14T06:46:28;100247.72;;;-3.12;86.27
14790;BME280;7486;51.010;10.366;2023-02-14T06:48:55;100174.66;;;-3.39;86.52
14790;BME280;7486;51.010;10.366;2023-02-14T06:51:22;100200.22;;;-3.50;86.18
14790;BME280;7486;51.010;10.366;2023-02-14T06:53:50;100208.25;;;-3.75;87.39
14790;BME280;7486;51.010;10.366;2023-02-14T06:56:16;100134.69;;;-4.10;87.74
14790;BME280;7486;51.010;10.366;2023-02-14T06:58:43;100068.38;;;-4.31;88.00
14790;BME280;7486;51.010;10.366;2023-02-14T07:01:10;100108.63;;;-4.05;88.49
14790;BME280;7486;51.010;10.366;2023-02-14T07:03:37;100244.63;;;-3.20;87.77
14790;BME280;7486;51.010;10.366;2023-02-14T07:06:04;100112.41;;;-4.12;87.46
14790;BME280;7486;51.010;10.366;2023-02-14T07:08:30;100132.69;;;-4.42;89.32
14790;BME280;7486;51.010;10.366;2023-02-14T07:10:57;100190.63;;;-3.87;90.23
14790;BME280;7486;51.010;10.366;2023-02-14T07:13:25;100247.25;;;-3.59;90.71
14790;BME280;7486;51.010;10.366;2023-02-14T07:15:52;100099.50;;;-4.14;91.09
14790;BME280;7486;51.010;10.366;2023-02-14T07:18:19;100112.28;;;-3.90;90.62
14790;BME280;7486;51.010;10.366;2023-02-14T07:20:45;100199.84;;;-3.42;90.47
14790;BME280;7486;51.010;10.366;2023-02-14T07:23:12;100246.53;;;-3.05;90.54
14790;BME280;7486;51.010;10.366;2023-02-14T07:25:39;99715.88;;;-6.41;89.02
14790;BME280;7486;51.010;10.366;2023-02-14T07:28:06;100122.56;;;-4.08;90.19
14790;BME280;7486;51.010;10.366;2023-02-14T07:30:33;100171.84;;;-4.11;91.19
14790;BME280;7486;51.010;10.366;2023-02-14T07:33:00;100208.47;;;-4.20;92.64
14790;BME280;7486;51.010;10.366;2023-02-14T07:35:27;99905.09;;;-5.40;93.05
14790;BME280;7486;51.010;10.366;2023-02-14T07:37:54;100122.72;;;-3.92;92.22
14790;BME280;7486;51.010;10.366;2023-02-14T07:40:21;100178.91;;;-3.75;91.45
14790;BME280;7486;51.010;10.366;2023-02-14T07:42:52;100239.00;;;-3.49;92.08
14790;BME280;7486;51.010;10.366;2023-02-14T07:45:19;100191.59;;;-4.08;93.62
14790;BME280;7486;51.010;10.366;2023-02-14T07:47:50;100232.81;;;-3.65;94.56
14790;BME280;7486;51.010;10.366;2023-02-14T07:50:18;100179.47;;;-3.87;93.35
14790;BME280;7486;51.010;10.366;2023-02-14T07:52:45;99953.88;;;-5.32;94.17
14790;BME280;7486;51.010;10.366;2023-02-14T07:55:12;100216.66;;;-3.51;94.11
14790;BME280;7486;51.010;10.366;2023-02-14T07:57:40;100234.31;;;-3.03;93.67
14790;BME280;7486;51.010;10.366;2023-02-14T08:00:08;100225.41;;;-2.79;93.30
14790;BME280;7486;51.010;10.366;2023-02-14T08:02:44;100169.84;;;-3.47;93.17
14790;BME280;7486;51.010;10.366;2023-02-14T08:05:19;99907.13;;;-4.87;92.12
14790;BME280;7486;51.010;10.366;2023-02-14T08:07:46;100197.25;;;-3.42;92.56
14790;BME280;7486;51.010;10.366;2023-02-14T08:10:13;100187.03;;;-3.08;93.15
14790;BME280;7486;51.010;10.366;2023-02-14T08:12:40;99914.13;;;-4.71;92.41
14790;BME280;7486;51.010;10.366;2023-02-14T08:15:08;99874.38;;;-4.68;91.81
14790;BME280;7486;51.010;10.366;2023-02-14T08:17:35;99872.41;;;-4.82;90.61
14790;BME280;7486;51.010;10.366;2023-02-14T08:20:02;100086.19;;;-3.67;90.95
14790;BME280;7486;51.010;10.366;2023-02-14T08:22:29;100182.97;;;-2.95;92.18
14790;BME280;7486;51.010;10.366;2023-02-14T08:25:26;100233.72;;;-2.19;91.58
14790;BME280;7486;51.010;10.366;2023-02-14T08:27:53;100021.78;;;-3.39;90.86
14790;BME280;7486;51.010;10.366;2023-02-14T08:30:21;100121.50;;;-2.76;91.06
14790;BME280;7486;51.010;10.366;2023-02-14T08:32:47;100173.88;;;-2.33;91.23
14790;BME280;7486;51.010;10.366;2023-02-14T08:35:14;100223.47;;;-2.22;91.05
14790;BME280;7486;51.010;10.366;2023-02-14T08:37:43;100085.19;;;-3.10;91.69
14790;BME280;7486;51.010;10.366;2023-02-14T08:40:10;100176.91;;;-2.42;92.15
14790;BME280;7486;51.010;10.366;2023-02-14T08:42:37;100225.13;;;-1.87;92.15
14790;BME280;7486;51.010;10.366;2023-02-14T08:45:04;100033.13;;;-2.88;91.66
14790;BME280;7486;51.010;10.366;2023-02-14T08:47:32;100161.94;;;-2.20;90.95
14790;BME280;7486;51.010;10.366;2023-02-14T08:49:58;99955.34;;;-3.57;91.09
14790;BME280;7486;51.010;10.366;2023-02-14T08:52:25;100076.56;;;-2.59;91.30
14790;BME280;7486;51.010;10.366;2023-02-14T08:54:52;100163.69;;;-2.04;90.43
14790;BME280;7486;51.010;10.366;2023-02-14T08:57:19;100101.22;;;-2.68;91.82
14790;BME280;7486;51.010;10.366;2023-02-14T08:59:45;100187.09;;;-1.88;92.33
14790;BME280;7486;51.010;10.366;2023-02-14T09:02:12;100001.81;;;-2.68;90.82
14790;BME280;7486;51.010;10.366;2023-02-14T09:04:39;100138.91;;;-1.94;91.37
14790;BME280;7486;51.010;10.366;2023-02-14T09:07:06;99955.94;;;-3.18;90.61
14790;BME280;7486;51.010;10.366;2023-02-14T09:09:33;100215.66;;;-1.88;91.94
14790;BME280;7486;51.010;10.366;2023-02-14T09:12:03;99991.69;;;-3.41;93.52
14790;BME280;7486;51.010;10.366;2023-02-14T09:14:37;100201.19;;;-2.09;92.93
14790;BME280;7486;51.010;10.366;2023-02-14T09:17:05;99972.34;;;-3.00;93.64
14790;BME280;7486;51.010;10.366;2023-02-14T09:19:33;100166.56;;;-1.44;93.49
14790;BME280;7486;51.010;10.366;2023-02-14T09:22:00;100062.63;;;-2.08;92.64
14790;BME280;7486;51.010;10.366;2023-02-14T09:24:27;100054.13;;;-1.95;91.98
14790;BME280;7486;51.010;10.366;2023-02-14T09:26:53;100090.19;;;-1.42;91.83
14790;BME280;7486;51.010;10.366;2023-02-14T09:29:20;100149.09;;;-0.95;90.78
14790;BME280;7486;51.010;10.366;2023-02-14T09:31:47;100053.97;;;-1.60;89.97
14790;BME280;7486;51.010;10.366;2023-02-14T09:34:14;100132.81;;;-0.99;89.83
14790;BME280;7486;51.010;10.366;2023-02-14T09:36:40;100163.59;;;-0.91;89.10
14790;BME280;7486;51.010;10.366;2023-02-14T09:39:07;100112.28;;;-1.19;89.39
14790;BME280;7486;51.010;10.366;2023-02-14T09:47:32;100124.50;;;-0.89;90.07
14790;BME280;7486;51.010;10.366;2023-02-14T09:50:03;100187.22;;;-0.49;90.27
14790;BME280;7486;51.010;10.366;2023-02-14T09:52:32;100190.00;;;-0.67;90.23
14790;BME280;7486;51.010;10.366;2023-02-14T09:55:01;99866.38;;;-2.58;90.35
14790;BME280;7486;51.010;10.366;2023-02-14T10:09:02;100186.53;;;-0.22;89.95
14790;BME280;7486;51.010;10.366;2023-02-14T10:11:34;100133.53;;;-0.81;89.54
14790;BME280;7486;51.010;10.366;2023-02-14T10:14:07;100146.69;;;-0.68;89.86
14790;BME280;7486;51.010;10.366;2023-02-14T10:16:42;100139.09;;;-0.87;89.60
14790;BME280;7486;51.010;10.366;2023-02-14T10:21:54;100156.31;;;-0.55;90.31
14790;BME280;7486;51.010;10.366;2023-02-14T10:24:34;100130.38;;;-0.86;90.90
14790;BME280;7486;51.010;10.366;2023-02-14T10:27:10;100190.63;;;-0.18;92.13
14790;BME280;7486;51.010;10.366;2023-02-14T10:29:38;100100.59;;;-0.66;90.53
14790;BME280;7486;51.010;10.366;2023-02-14T10:32:13;100059.06;;;-0.54;90.40
14790;BME280;7486;51.010;10.366;2023-02-14T10:34:48;100071.22;;;-0.82;89.64
14790;BME280;7486;51.010;10.366;2023-02-14T10:37:18;100178.16;;;-0.57;91.30
14790;BME280;7486;51.010;10.366;2023-02-14T10:46:11;100166.81;;;-0.12;93.60
14790;BME280;7486;51.010;10.366;2023-02-14T10:56:45;100043.66;;;-1.01;92.84
14790;BME280;7486;51.010;10.366;2023-02-14T10:59:24;100148.00;;;-0.31;93.87
14790;BME280;7486;51.010;10.366;2023-02-14T11:01:52;100146.94;;;0.15;92.57
14790;BME280;7486;51.010;10.366;2023-02-14T11:04:23;100096.69;;;0.13;91.94
14790;BME280;7486;51.010;10.366;2023-02-14T11:06:50;100146.91;;;0.01;91.54
14790;BME280;7486;51.010;10.366;2023-02-14T11:09:17;100106.19;;;-0.14;92.77
14790;BME280;7486;51.010;10.366;2023-02-14T11:11:50;99986.84;;;-0.64;91.48
14790;BME280;7486;51.010;10.366;2023-02-14T11:16:46;99989.63;;;-0.53;91.93
14790;BME280;7486;51.010;10.366;2023-02-14T11:21:43;100070.28;;;0.73;90.30
14790;BME280;7486;51.010;10.366;2023-02-14T11:24:18;100063.50;;;0.43;88.95
14790;BME280;7486;51.010;10.366;2023-02-14T11:26:47;100012.03;;;0.33;89.02
14790;BME280;7486;51.010;10.366;2023-02-14T11:29:20;100097.13;;;0.75;88.75
14790;BME280;7486;51.010;10.366;2023-02-14T11:31:50;100058.44;;;0.54;89.13
14790;BME280;7486;51.010;10.366;2023-02-14T11:34:34;100016.69;;;0.28;88.93
14790;BME280;7486;51.010;10.366;2023-02-14T11:37:18;100120.22;;;1.07;88.91
14790;BME280;7486;51.010;10.366;2023-02-14T11:39:53;100033.00;;;0.85;89.24
14790;BME280;7486;51.010;10.366;2023-02-14T11:42:43;100126.09;;;1.63;87.91
14790;BME280;7486;51.010;10.366;2023-02-14T11:45:27;100122.81;;;1.34;87.88
14790;BME280;7486;51.010;10.366;2023-02-14T11:50:34;100049.69;;;1.09;85.13
14790;BME280;7486;51.010;10.366;2023-02-14T11:53:01;100108.22;;;1.05;87.27
14790;BME280;7486;51.010;10.366;2023-02-14T11:55:31;100098.28;;;1.37;87.55
14790;BME280;7486;51.010;10.366;2023-02-14T11:58:02;99783.06;;;-0.79;87.33
14790;BME280;7486;51.010;10.366;2023-02-14T12:00:30;100078.91;;;1.14;88.92
14790;BME280;7486;51.010;10.366;2023-02-14T12:02:59;100071.56;;;0.94;90.86
14790;BME280;7486;51.010;10.366;2023-02-14T12:05:31;100098.19;;;1.51;89.81
14790;BME280;7486;51.010;10.366;2023-02-14T12:08:04;100092.44;;;2.09;88.63
14790;BME280;7486;51.010;10.366;2023-02-14T12:10:37;100090.13;;;2.17;86.67
14790;BME280;7486;51.010;10.366;2023-02-14T12:15:37;100088.38;;;1.80;88.80
14790;BME280;7486;51.010;10.366;2023-02-14T12:20:41;100075.44;;;1.66;89.93
14790;BME280;7486;51.010;10.366;2023-02-14T12:23:26;100041.88;;;1.85;87.89
14790;BME280;7486;51.010;10.366;2023-02-14T12:26:01;100038.84;;;1.66;88.96
14790;BME280;7486;51.010;10.366;2023-02-14T12:28:36;99990.91;;;1.67;87.73
14790;BME280;7486;51.010;10.366;2023-02-14T12:31:10;100061.31;;;1.93;89.56
14790;BME280;7486;51.010;10.366;2023-02-14T12:33:38;100022.41;;;2.01;89.17
14790;BME280;7486;51.010;10.366;2023-02-14T12:36:17;99981.25;;;1.80;87.97
14790;BME280;7486;51.010;10.366;2023-02-14T12:38:52;100053.75;;;2.50;87.81
14790;BME280;7486;51.010;10.366;2023-02-14T12:41:31;100049.47;;;2.49;88.30
14790;BME280;7486;51.010;10.366;2023-02-14T12:44:24;100049.50;;;2.84;85.69
14790;BME280;7486;51.010;10.366;2023-02-14T12:52:24;100041.66;;;3.08;85.34
14790;BME280;7486;51.010;10.366;2023-02-14T12:55:04;100040.97;;;3.17;83.37
14790;BME280;7486;51.010;10.366;2023-02-14T12:57:50;100024.88;;;3.10;84.06
14790;BME280;7486;51.010;10.366;2023-02-14T13:14:58;99966.16;;;3.92;81.06
14790;BME280;7486;51.010;10.366;2023-02-14T13:17:33;100002.19;;;4.44;80.73
14790;BME280;7486;51.010;10.366;2023-02-14T13:22:51;99938.91;;;4.27;78.34
14790;BME280;7486;51.010;10.366;2023-02-14T13:25:27;99995.00;;;4.78;78.43
14790;BME280;7486;51.010;10.366;2023-02-14T13:27:54;99913.47;;;4.38;77.98
14790;BME280;7486;51.010;10.366;2023-02-14T13:30:32;99982.66;;;4.90;77.12
14790;BME280;7486;51.010;10.366;2023-02-14T13:33:27;99978.91;;;4.83;76.98
14790;BME280;7486;51.010;10.366;2023-02-14T13:36:02;99867.47;;;4.34;75.75
14790;BME280;7486;51.010;10.366;2023-02-14T13:38:31;99954.03;;;4.87;76.23
14790;BME280;7486;51.010;10.366;2023-02-14T13:40:59;99964.41;;;5.09;76.32
14790;BME280;7486;51.010;10.366;2023-02-14T13:44:02;99954.84;;;5.19;74.43
14790;BME280;7486;51.010;10.366;2023-02-14T13:52:02;99924.31;;;5.07;77.42
14790;BME280;7486;51.010;10.366;2023-02-14T13:55:04;99951.34;;;5.39;76.45
14790;BME280;7486;51.010;10.366;2023-02-14T13:57:33;99947.75;;;5.71;76.71
14790;BME280;7486;51.010;10.366;2023-02-14T14:02:47;99924.09;;;5.71;74.66
14790;BME280;7486;51.010;10.366;2023-02-14T14:10:49;99924.19;;;6.18;75.84
14790;BME280;7486;51.010;10.366;2023-02-14T14:18:44;99941.56;;;6.50;73.54
14790;BME280;7486;51.010;10.366;2023-02-14T14:21:24;99817.25;;;5.79;74.26
14790;BME280;7486;51.010;10.366;2023-02-14T14:24:20;99932.56;;;6.72;75.19
14790;BME280;7486;51.010;10.366;2023-02-14T14:29:36;99937.66;;;6.63;74.47
14790;BME280;7486;51.010;10.366;2023-02-14T14:32:10;99834.72;;;5.90;74.01
14790;BME280;7486;51.010;10.366;2023-02-14T14:34:47;99933.94;;;6.56;73.06
14790;BME280;7486;51.010;10.366;2023-02-14T14:37:17;99937.38;;;6.66;74.02
14790;BME280;7486;51.010;10.366;2023-02-14T14:39:50;99925.63;;;6.90;72.73
14790;BME280;7486;51.010;10.366;2023-02-14T14:42:18;99927.53;;;7.07;71.78
14790;BME280;7486;51.010;10.366;2023-02-14T14:44:53;99930.28;;;7.15;71.14
14790;BME280;7486;51.010;10.366;2023-02-14T14:47:42;99746.16;;;5.71;70.87
14790;BME280;7486;51.010;10.366;2023-02-14T14:52:50;99844.13;;;6.59;72.46
14790;BME280;7486;51.010;10.366;2023-02-14T14:55:30;99879.56;;;7.03;72.26
14790;BME280;7486;51.010;10.366;2023-02-14T14:58:00;99848.34;;;6.99;69.91
14790;BME280;7486;51.010;10.366;2023-02-14T15:00:35;99916.16;;;7.43;68.83
14790;BME280;7486;51.010;10.366;2023-02-14T15:05:40;99829.34;;;7.05;68.86
14790;BME280;7486;51.010;10.366;2023-02-14T15:08:22;99909.09;;;7.71;69.94
14790;BME280;7486;51.010;10.366;2023-02-14T15:10:56;99921.19;;;7.74;70.15
14790;BME280;7486;51.010;10.366;2023-02-14T15:16:49;99868.19;;;7.67;71.48
14790;BME280;7486;51.010;10.366;2023-02-14T15:19:33;99910.81;;;7.90;68.72
14790;BME280;7486;51.010;10.366;2023-02-14T15:22:04;99812.91;;;7.20;67.48
14790;BME280;7486;51.010;10.366;2023-02-14T15:24:32;99885.22;;;7.73;67.65
14790;BME280;7486;51.010;10.366;2023-02-14T15:27:01;99856.03;;;7.56;68.50
14790;BME280;7486;51.010;10.366;2023-02-14T15:29:32;99804.00;;;7.31;69.47
14790;BME280;7486;51.010;10.366;2023-02-14T15:32:00;99791.88;;;7.11;69.29
14790;BME280;7486;51.010;10.366;2023-02-14T15:34:31;99513.91;;;5.43;69.14
14790;BME280;7486;51.010;10.366;2023-02-14T15:37:03;99840.94;;;7.49;69.87
14790;BME280;7486;51.010;10.366;2023-02-14T15:39:40;99621.78;;;6.07;69.58
14790;BME280;7486;51.010;10.366;2023-02-14T15:42:24;99890.31;;;7.84;70.19
14790;BME280;7486;51.010;10.366;2023-02-14T15:45:14;99890.31;;;7.84;70.91